Terminal Aerodrome Forecast
Issued by NWS

Home | Current Version | Previous Version | Text Only | Print | Product List | Glossary On
Versions: 1 2 3 4 5 6 7 8 9 10 11 12 13
000
FTUS45 KREV 172300
TAFRNO
TAF
KRNO 172328Z 1800/1824 27015G27KT P6SM FEW080 BKN200
     FM180500 31011KT P6SM BKN150
     FM180900 VRB03KT P6SM BKN150
     FM182000 33007KT P6SM SCT040 BKN120=

USA.gov is the U.S. government's official web portal to all federal, state and local government web resources and services.